sensor_id;sensor_type;location;lat;lon;timestamp;pressure;altitude;pressure_sealevel;temperature;humidity
58955;BME280;45815;52.334;5.024;2023-07-08T00:00:44;101791.88;;;21.15;100.00
58955;BME280;45815;52.334;5.024;2023-07-08T00:03:13;101796.31;;;21.15;100.00
58955;BME280;45815;52.334;5.024;2023-07-08T00:05:39;101796.28;;;21.16;100.00
58955;BME280;45815;52.334;5.024;2023-07-08T00:08:07;101792.78;;;21.11;100.00
58955;BME280;45815;52.334;5.024;2023-07-08T00:10:33;101785.69;;;21.08;100.00
58955;BME280;45815;52.334;5.024;2023-07-08T00:12:59;101783.94;;;21.07;100.00
58955;BME280;45815;52.334;5.024;2023-07-08T00:15:27;101767.06;;;21.04;100.00
58955;BME280;45815;52.334;5.024;2023-07-08T00:17:53;101783.03;;;21.10;100.00
58955;BME280;45815;52.334;5.024;2023-07-08T00:20:41;101778.63;;;21.03;100.00
58955;BME280;45815;52.334;5.024;2023-07-08T00:23:08;101772.34;;;21.10;100.00
58955;BME280;45815;52.334;5.024;2023-07-08T00:25:35;101768.84;;;21.03;100.00
58955;BME280;45815;52.334;5.024;2023-07-08T00:28:00;101775.91;;;21.09;100.00
58955;BME280;45815;52.334;5.024;2023-07-08T00:30:30;101772.34;;;21.10;100.00
58955;BME280;45815;52.334;5.024;2023-07-08T00:32:58;101763.50;;;21.05;100.00
58955;BME280;45815;52.334;5.024;2023-07-08T00:35:35;101771.50;;;21.02;100.00
58955;BME280;45815;52.334;5.024;2023-07-08T00:38:02;101771.47;;;21.06;100.00
58955;BME280;45815;52.334;5.024;2023-07-08T00:40:29;101767.03;;;21.05;100.00
58955;BME280;45815;52.334;5.024;2023-07-08T00:42:59;101767.09;;;21.01;100.00
58955;BME280;45815;52.334;5.024;2023-07-08T00:48:16;101735.22;;;20.82;100.00
58955;BME280;45815;52.334;5.024;2023-07-08T00:50:43;101755.56;;;20.94;100.00
58955;BME280;45815;52.334;5.024;2023-07-08T00:53:37;101753.00;;;20.83;100.00
58955;BME280;45815;52.334;5.024;2023-07-08T00:56:12;101745.81;;;20.90;100.00
58955;BME280;45815;52.334;5.024;2023-07-08T00:59:08;101751.19;;;20.87;100.00
58955;BME280;45815;52.334;5.024;2023-07-08T01:01:34;101752.28;;;20.66;100.00
58955;BME280;45815;52.334;5.024;2023-07-08T01:06:44;101757.47;;;20.83;100.00
58955;BME280;45815;52.334;5.024;2023-07-08T01:09:13;101759.25;;;20.82;100.00
58955;BME280;45815;52.334;5.024;2023-07-08T01:11:40;101751.25;;;20.82;100.00
58955;BME280;45815;52.334;5.024;2023-07-08T01:14:07;101737.06;;;20.76;100.00
58955;BME280;45815;52.334;5.024;2023-07-08T01:16:35;101749.50;;;20.80;100.00
58955;BME280;45815;52.334;5.024;2023-07-08T01:19:01;101743.28;;;20.78;100.00
58955;BME280;45815;52.334;5.024;2023-07-08T01:24:01;101739.00;;;20.54;100.00
58955;BME280;45815;52.334;5.024;2023-07-08T01:26:27;101740.66;;;20.73;100.00
58955;BME280;45815;52.334;5.024;2023-07-08T01:28:55;101725.56;;;20.69;100.00
58955;BME280;45815;52.334;5.024;2023-07-08T01:31:22;101735.34;;;20.70;100.00
58955;BME280;45815;52.334;5.024;2023-07-08T01:33:48;101730.88;;;20.71;100.00
58955;BME280;45815;52.334;5.024;2023-07-08T01:36:13;101729.13;;;20.68;100.00
58955;BME280;45815;52.334;5.024;2023-07-08T01:38:40;101707.91;;;20.56;100.00
58955;BME280;45815;52.334;5.024;2023-07-08T01:41:11;101711.47;;;20.52;100.00
58955;BME280;45815;52.334;5.024;2023-07-08T01:43:37;101725.63;;;20.55;100.00
58955;BME280;45815;52.334;5.024;2023-07-08T01:46:07;101707.94;;;20.45;100.00
58955;BME280;45815;52.334;5.024;2023-07-08T01:48:38;101721.25;;;20.48;100.00
58955;BME280;45815;52.334;5.024;2023-07-08T01:51:06;101720.41;;;20.41;100.00
58955;BME280;45815;52.334;5.024;2023-07-08T01:53:38;101718.69;;;20.36;100.00
58955;BME280;45815;52.334;5.024;2023-07-08T01:56:05;101728.47;;;20.35;100.00
58955;BME280;45815;52.334;5.024;2023-07-08T01:58:31;101732.03;;;20.34;100.00
58955;BME280;45815;52.334;5.024;2023-07-08T02:00:57;101724.94;;;20.32;100.00
58955;BME280;45815;52.334;5.024;2023-07-08T02:03:23;101701.97;;;20.14;100.00
58955;BME280;45815;52.334;5.024;2023-07-08T02:05:48;101714.38;;;20.21;100.00
58955;BME280;45815;52.334;5.024;2023-07-08T02:08:14;101711.75;;;20.12;100.00
58955;BME280;45815;52.334;5.024;2023-07-08T02:10:42;101712.63;;;20.11;100.00
58955;BME280;45815;52.334;5.024;2023-07-08T02:13:07;101702.88;;;20.08;100.00
58955;BME280;45815;52.334;5.024;2023-07-08T02:15:33;101691.44;;;19.95;100.00
58955;BME280;45815;52.334;5.024;2023-07-08T02:17:59;101702.91;;;20.05;100.00
58955;BME280;45815;52.334;5.024;2023-07-08T02:20:24;101705.56;;;20.03;100.00
58955;BME280;45815;52.334;5.024;2023-07-08T02:22:51;101684.34;;;19.91;100.00
58955;BME280;45815;52.334;5.024;2023-07-08T02:25:16;101698.53;;;19.99;100.00
58955;BME280;45815;52.334;5.024;2023-07-08T02:27:42;101692.34;;;19.90;100.00
58955;BME280;45815;52.334;5.024;2023-07-08T02:30:08;101693.25;;;19.90;100.00
58955;BME280;45815;52.334;5.024;2023-07-08T02:32:34;101677.25;;;19.90;100.00
58955;BME280;45815;52.334;5.024;2023-07-08T02:35:02;101694.13;;;19.89;100.00
58955;BME280;45815;52.334;5.024;2023-07-08T02:37:31;101686.13;;;19.88;100.00
58955;BME280;45815;52.334;5.024;2023-07-08T02:39:57;101686.19;;;19.83;100.00
58955;BME280;45815;52.334;5.024;2023-07-08T02:42:23;101682.63;;;19.81;100.00
58955;BME280;45815;52.334;5.024;2023-07-08T02:44:48;101686.19;;;19.83;100.00
58955;BME280;45815;52.334;5.024;2023-07-08T02:47:14;101683.50;;;19.80;100.00
58955;BME280;45815;52.334;5.024;2023-07-08T02:49:40;101680.84;;;19.80;100.00
58955;BME280;45815;52.334;5.024;2023-07-08T02:52:06;101683.50;;;19.80;100.00
58955;BME280;45815;52.334;5.024;2023-07-08T02:54:31;101681.75;;;19.77;100.00
58955;BME280;45815;52.334;5.024;2023-07-08T02:56:57;101686.19;;;19.75;100.00
58955;BME280;45815;52.334;5.024;2023-07-08T02:59:23;101680.00;;;19.75;100.00
58955;BME280;45815;52.334;5.024;2023-07-08T03:01:48;101686.22;;;19.74;100.00
58955;BME280;45815;52.334;5.024;2023-07-08T03:04:15;101683.56;;;19.71;100.00
58955;BME280;45815;52.334;5.024;2023-07-08T03:06:44;101671.16;;;19.68;100.00
58955;BME280;45815;52.334;5.024;2023-07-08T03:09:12;101676.44;;;19.73;100.00
58955;BME280;45815;52.334;5.024;2023-07-08T03:11:38;101671.16;;;19.68;100.00
58955;BME280;45815;52.334;5.024;2023-07-08T03:14:05;101670.25;;;19.65;100.00
58955;BME280;45815;52.334;5.024;2023-07-08T03:16:31;101663.16;;;19.64;100.00
58955;BME280;45815;52.334;5.024;2023-07-08T03:18:57;101676.47;;;19.64;100.00
58955;BME280;45815;52.334;5.024;2023-07-08T03:21:24;101675.59;;;19.58;100.00
58955;BME280;45815;52.334;5.024;2023-07-08T03:23:50;101677.38;;;19.59;100.00
58955;BME280;45815;52.334;5.024;2023-07-08T03:26:21;101680.94;;;19.57;100.00
58955;BME280;45815;52.334;5.024;2023-07-08T03:28:48;101683.63;;;19.55;100.00
58955;BME280;45815;52.334;5.024;2023-07-08T03:31:14;101687.16;;;19.56;100.00
58955;BME280;45815;52.334;5.024;2023-07-08T03:33:43;101680.97;;;19.55;100.00
58955;BME280;45815;52.334;5.024;2023-07-08T03:36:14;101674.75;;;19.52;100.00
58955;BME280;45815;52.334;5.024;2023-07-08T03:38:57;101673.00;;;19.46;100.00
58955;BME280;45815;52.334;5.024;2023-07-08T03:41:24;101672.13;;;19.50;100.00
58955;BME280;45815;52.334;5.024;2023-07-08T03:43:49;101680.94;;;19.52;100.00
58955;BME280;45815;52.334;5.024;2023-07-08T03:46:20;101668.53;;;19.51;100.00
58955;BME280;45815;52.334;5.024;2023-07-08T03:48:46;101676.50;;;19.57;100.00
58955;BME280;45815;52.334;5.024;2023-07-08T03:51:29;101675.59;;;19.58;100.00
58955;BME280;45815;52.334;5.024;2023-07-08T03:53:55;101683.56;;;19.66;100.00
58955;BME280;45815;52.334;5.024;2023-07-08T03:56:22;101685.34;;;19.67;100.00
58955;BME280;45815;52.334;5.024;2023-07-08T03:58:47;101689.78;;;19.67;100.00
58955;BME280;45815;52.334;5.024;2023-07-08T04:01:22;101693.34;;;19.63;100.00
58955;BME280;45815;52.334;5.024;2023-07-08T04:03:56;101687.16;;;19.62;100.00
58955;BME280;45815;52.334;5.024;2023-07-08T04:06:22;101690.66;;;19.64;100.00
58955;BME280;45815;52.334;5.024;2023-07-08T04:08:48;101689.81;;;19.60;100.00
58955;BME280;45815;52.334;5.024;2023-07-08T04:11:16;101687.13;;;19.59;100.00
58955;BME280;45815;52.334;5.024;2023-07-08T04:13:43;101686.25;;;19.60;100.00
58955;BME280;45815;52.334;5.024;2023-07-08T04:16:16;101690.72;;;19.58;100.00
58955;BME280;45815;52.334;5.024;2023-07-08T04:18:42;101687.16;;;19.56;100.00
58955;BME280;45815;52.334;5.024;2023-07-08T04:21:07;101693.34;;;19.59;100.00
58955;BME280;45815;52.334;5.024;2023-07-08T04:23:33;101693.34;;;19.63;100.00
58955;BME280;45815;52.334;5.024;2023-07-08T04:25:59;101695.97;;;19.64;100.00
58955;BME280;45815;52.334;5.024;2023-07-08T04:28:25;101690.69;;;19.61;100.00
58955;BME280;45815;52.334;5.024;2023-07-08T04:30:50;101692.44;;;19.64;100.00
58955;BME280;45815;52.334;5.024;2023-07-08T04:33:16;101692.47;;;19.62;100.00
58955;BME280;45815;52.334;5.024;2023-07-08T04:35:43;101684.47;;;19.60;100.00
58955;BME280;45815;52.334;5.024;2023-07-08T04:38:19;101689.84;;;19.53;100.00
58955;BME280;45815;52.334;5.024;2023-07-08T04:40:47;101685.38;;;19.63;100.00
58955;BME280;45815;52.334;5.024;2023-07-08T04:43:12;101682.69;;;19.61;100.00
58955;BME280;45815;52.334;5.024;2023-07-08T04:45:39;101695.13;;;19.70;100.00
58955;BME280;45815;52.334;5.024;2023-07-08T04:48:11;101693.31;;;19.66;100.00
58955;BME280;45815;52.334;5.024;2023-07-08T04:50:45;101696.88;;;19.71;100.00
58955;BME280;45815;52.334;5.024;2023-07-08T04:53:12;101643.69;;;19.49;100.00
58955;BME280;45815;52.334;5.024;2023-07-08T04:55:40;101687.97;;;19.78;100.00
58955;BME280;45815;52.334;5.024;2023-07-08T04:58:06;101687.94;;;19.82;100.00
58955;BME280;45815;52.334;5.024;2023-07-08T05:00:32;101689.69;;;19.85;100.00
58955;BME280;45815;52.334;5.024;2023-07-08T05:02:57;101693.25;;;19.89;100.00
58955;BME280;45815;52.334;5.024;2023-07-08T05:05:23;101687.00;;;19.93;100.00
58955;BME280;45815;52.334;5.024;2023-07-08T05:07:48;101693.19;;;19.98;100.00
58955;BME280;45815;52.334;5.024;2023-07-08T05:10:15;101684.28;;;20.00;100.00
58955;BME280;45815;52.334;5.024;2023-07-08T05:12:42;101687.75;;;20.09;100.00
58955;BME280;45815;52.334;5.024;2023-07-08T05:15:07;101680.72;;;20.03;100.00
58955;BME280;45815;52.334;5.024;2023-07-08T05:17:34;101681.53;;;20.13;100.00
58955;BME280;45815;52.334;5.024;2023-07-08T05:19:59;101680.66;;;20.14;100.00
58955;BME280;45815;52.334;5.024;2023-07-08T05:22:29;101681.53;;;20.16;100.00
58955;BME280;45815;52.334;5.024;2023-07-08T05:24:54;101682.38;;;20.18;100.00
58955;BME280;45815;52.334;5.024;2023-07-08T05:27:24;101679.69;;;20.26;100.00
58955;BME280;45815;52.334;5.024;2023-07-08T05:29:50;101681.41;;;20.31;100.00
58955;BME280;45815;52.334;5.024;2023-07-08T05:32:15;101671.59;;;20.32;100.00
58955;BME280;45815;52.334;5.024;2023-07-08T05:34:41;101681.41;;;20.30;100.00
58955;BME280;45815;52.334;5.024;2023-07-08T05:37:07;101677.81;;;20.34;100.00
58955;BME280;45815;52.334;5.024;2023-07-08T05:39:32;101674.31;;;20.30;100.00
58955;BME280;45815;52.334;5.024;2023-07-08T05:41:58;101683.94;;;20.43;100.00
58955;BME280;45815;52.334;5.024;2023-07-08T05:44:24;101688.38;;;20.48;100.00
58955;BME280;45815;52.334;5.024;2023-07-08T05:46:50;101687.41;;;20.55;100.00
58955;BME280;45815;52.334;5.024;2023-07-08T05:49:15;101682.06;;;20.61;100.00
58955;BME280;45815;52.334;5.024;2023-07-08T05:51:42;101684.72;;;20.64;100.00
58955;BME280;45815;52.334;5.024;2023-07-08T05:54:11;101688.25;;;20.68;100.00
58955;BME280;45815;52.334;5.024;2023-07-08T05:56:36;101686.41;;;20.70;100.00
58955;BME280;45815;52.334;5.024;2023-07-08T05:59:03;101678.41;;;20.71;100.00
58955;BME280;45815;52.334;5.024;2023-07-08T06:01:29;101674.03;;;20.62;100.00
58955;BME280;45815;52.334;5.024;2023-07-08T06:03:55;101688.19;;;20.72;100.00
58955;BME280;45815;52.334;5.024;2023-07-08T06:06:23;101682.88;;;20.71;100.00
58955;BME280;45815;52.334;5.024;2023-07-08T06:08:49;101678.41;;;20.71;100.00
58955;BME280;45815;52.334;5.024;2023-07-08T06:11:14;101686.38;;;20.74;100.00
58955;BME280;45815;52.334;5.024;2023-07-08T06:13:40;101678.38;;;20.76;100.00
58955;BME280;45815;52.334;5.024;2023-07-08T06:16:05;101680.16;;;20.74;100.00
58955;BME280;45815;52.334;5.024;2023-07-08T06:18:31;101681.03;;;20.77;100.00
58955;BME280;45815;52.334;5.024;2023-07-08T06:20:57;101680.13;;;20.78;100.00
58955;BME280;45815;52.334;5.024;2023-07-08T06:23:23;101677.44;;;20.78;100.00
58955;BME280;45815;52.334;5.024;2023-07-08T06:25:49;101681.88;;;20.82;100.00
58955;BME280;45815;52.334;5.024;2023-07-08T06:28:14;101681.84;;;20.84;100.00
58955;BME280;45815;52.334;5.024;2023-07-08T06:30:40;101679.16;;;20.89;100.00
58955;BME280;45815;52.334;5.024;2023-07-08T06:33:08;101669.41;;;20.84;100.00
58955;BME280;45815;52.334;5.024;2023-07-08T06:35:36;101678.19;;;20.93;100.00
58955;BME280;45815;52.334;5.024;2023-07-08T06:38:02;101681.72;;;20.95;100.00
58955;BME280;45815;52.334;5.024;2023-07-08T06:40:27;101680.84;;;20.93;100.00
58955;BME280;45815;52.334;5.024;2023-07-08T06:42:53;101682.66;;;20.92;100.00
58955;BME280;45815;52.334;5.024;2023-07-08T06:45:40;101685.28;;;20.97;100.00
58955;BME280;45815;52.334;5.024;2023-07-08T06:48:05;101685.22;;;21.00;100.00
58955;BME280;45815;52.334;5.024;2023-07-08T06:50:31;101689.66;;;21.02;100.00
58955;BME280;45815;52.334;5.024;2023-07-08T06:52:56;101694.94;;;21.10;100.00
58955;BME280;45815;52.334;5.024;2023-07-08T06:55:23;101686.81;;;21.16;100.00
58955;BME280;45815;52.334;5.024;2023-07-08T06:57:49;101684.09;;;21.21;100.00
58955;BME280;45815;52.334;5.024;2023-07-08T07:00:14;101680.50;;;21.23;100.00
58955;BME280;45815;52.334;5.024;2023-07-08T07:02:40;101677.81;;;21.26;100.00
58955;BME280;45815;52.334;5.024;2023-07-08T07:05:06;101682.25;;;21.31;100.00
58955;BME280;45815;52.334;5.024;2023-07-08T07:07:32;101679.53;;;21.34;100.00
58955;BME280;45815;52.334;5.024;2023-07-08T07:09:57;101688.41;;;21.36;100.00
58955;BME280;45815;52.334;5.024;2023-07-08T07:12:24;101678.56;;;21.41;100.00
58955;BME280;45815;52.334;5.024;2023-07-08T07:14:50;101682.13;;;21.43;100.00
58955;BME280;45815;52.334;5.024;2023-07-08T07:17:21;101673.22;;;21.41;100.00
58955;BME280;45815;52.334;5.024;2023-07-08T07:19:47;101674.00;;;21.49;100.00
58955;BME280;45815;52.334;5.024;2023-07-08T07:22:13;101673.97;;;21.52;100.00
58955;BME280;45815;52.334;5.024;2023-07-08T07:24:39;101682.81;;;21.57;100.00
58955;BME280;45815;52.334;5.024;2023-07-08T07:27:04;101666.84;;;21.54;100.00
58955;BME280;45815;52.334;5.024;2023-07-08T07:29:40;101668.47;;;21.63;100.00
58955;BME280;45815;52.334;5.024;2023-07-08T07:32:07;101670.19;;;21.68;100.00
58955;BME280;45815;52.334;5.024;2023-07-08T07:34:32;101669.28;;;21.71;100.00
58955;BME280;45815;52.334;5.024;2023-07-08T07:36:58;101674.56;;;21.73;100.00
58955;BME280;45815;52.334;5.024;2023-07-08T07:39:23;101674.56;;;21.76;100.00
58955;BME280;45815;52.334;5.024;2023-07-08T07:41:48;101672.75;;;21.78;100.00
58955;BME280;45815;52.334;5.024;2023-07-08T07:44:14;101673.56;;;21.83;100.00
58955;BME280;45815;52.334;5.024;2023-07-08T07:46:39;101669.03;;;21.86;100.00
58955;BME280;45815;52.334;5.024;2023-07-08T07:49:05;101667.19;;;21.91;100.00
58955;BME280;45815;52.334;5.024;2023-07-08T07:51:30;101669.75;;;21.99;100.00
58955;BME280;45815;52.334;5.024;2023-07-08T07:53:56;101682.13;;;22.06;100.00
58955;BME280;45815;52.334;5.024;2023-07-08T07:56:21;101673.94;;;22.16;100.00
58955;BME280;45815;52.334;5.024;2023-07-08T07:58:47;101664.03;;;22.24;100.00
58955;BME280;45815;52.334;5.024;2023-07-08T08:01:12;101665.66;;;22.34;100.00
58955;BME280;45815;52.334;5.024;2023-07-08T08:03:39;101660.09;;;22.48;100.00
58955;BME280;45815;52.334;5.024;2023-07-08T08:06:04;101659.78;;;22.65;100.00
58955;BME280;45815;52.334;5.024;2023-07-08T08:08:30;101653.31;;;22.78;100.00
58955;BME280;45815;52.334;5.024;2023-07-08T08:10:55;101657.44;;;22.94;100.00
58955;BME280;45815;52.334;5.024;2023-07-08T08:15:46;101654.81;;;23.36;100.00
58955;BME280;45815;52.334;5.024;2023-07-08T08:18:11;101653.44;;;23.59;100.00
58955;BME280;45815;52.334;5.024;2023-07-08T08:20:37;101649.44;;;23.80;100.00
58955;BME280;45815;52.334;5.024;2023-07-08T08:23:04;101653.31;;;24.06;100.00
58955;BME280;45815;52.334;5.024;2023-07-08T08:25:31;101654.44;;;24.33;100.00
58955;BME280;45815;52.334;5.024;2023-07-08T08:27:57;101648.38;;;24.60;100.00
58955;BME280;45815;52.334;5.024;2023-07-08T08:30:22;101646.72;;;24.89;100.00
58955;BME280;45815;52.334;5.024;2023-07-08T08:32:48;101651.28;;;25.18;100.00
58955;BME280;45815;52.334;5.024;2023-07-08T08:35:16;101652.88;;;25.55;100.00
58955;BME280;45815;52.334;5.024;2023-07-08T08:37:42;101660.88;;;25.86;100.00
58955;BME280;45815;52.334;5.024;2023-07-08T08:40:13;101671.63;;;26.15;100.00
58955;BME280;45815;52.334;5.024;2023-07-08T08:42:44;101678.94;;;26.38;100.00
58955;BME280;45815;52.334;5.024;2023-07-08T08:45:16;101673.53;;;26.66;100.00
58955;BME280;45815;52.334;5.024;2023-07-08T08:47:47;101674.22;;;26.98;100.00
58955;BME280;45815;52.334;5.024;2023-07-08T08:50:28;101673.84;;;27.32;100.00
58955;BME280;45815;52.334;5.024;2023-07-08T08:52:55;101657.47;;;27.38;100.00
58955;BME280;45815;52.334;5.024;2023-07-08T08:55:23;101677.84;;;27.69;100.00
58955;BME280;45815;52.334;5.024;2023-07-08T09:00:55;101680.13;;;28.24;100.00
58955;BME280;45815;52.334;5.024;2023-07-08T09:03:59;101674.53;;;28.52;100.00
58955;BME280;45815;52.334;5.024;2023-07-08T09:06:31;101678.03;;;28.74;99.40
58955;BME280;45815;52.334;5.024;2023-07-08T09:09:05;101671.59;;;28.97;99.10
58955;BME280;45815;52.334;5.024;2023-07-08T09:14:30;101677.47;;;29.28;94.84
58955;BME280;45815;52.334;5.024;2023-07-08T09:17:31;101669.38;;;29.46;94.11
58955;BME280;45815;52.334;5.024;2023-07-08T09:20:21;101676.44;;;29.70;94.18
58955;BME280;45815;52.334;5.024;2023-07-08T09:23:15;101672.91;;;29.86;92.39
58955;BME280;45815;52.334;5.024;2023-07-08T09:25:52;101659.16;;;29.91;93.28
58955;BME280;45815;52.334;5.024;2023-07-08T09:28:19;101669.94;;;30.10;93.23
58955;BME280;45815;52.334;5.024;2023-07-08T09:30:52;101674.66;;;30.24;91.22
58955;BME280;45815;52.334;5.024;2023-07-08T09:33:19;101661.16;;;30.41;90.08
58955;BME280;45815;52.334;5.024;2023-07-08T09:35:48;101664.69;;;30.61;88.67
58955;BME280;45815;52.334;5.024;2023-07-08T09:38:16;101669.72;;;30.86;89.68
58955;BME280;45815;52.334;5.024;2023-07-08T09:40:50;101671.53;;;31.03;89.00
58955;BME280;45815;52.334;5.024;2023-07-08T09:43:27;101670.56;;;31.21;90.40
58955;BME280;45815;52.334;5.024;2023-07-08T09:45:58;101667.56;;;31.43;89.93
58955;BME280;45815;52.334;5.024;2023-07-08T09:48:25;101669.31;;;31.60;91.62
58955;BME280;45815;52.334;5.024;2023-07-08T09:50:53;101661.63;;;31.68;87.38
58955;BME280;45815;52.334;5.024;2023-07-08T09:53:19;101669.06;;;31.81;88.50
58955;BME280;45815;52.334;5.024;2023-07-08T09:55:46;101659.94;;;31.82;86.16
58955;BME280;45815;52.334;5.024;2023-07-08T09:58:15;101668.34;;;31.93;88.16
58955;BME280;45815;52.334;5.024;2023-07-08T10:00:43;101670.81;;;31.98;86.71
58955;BME280;45815;52.334;5.024;2023-07-08T10:03:17;101667.66;;;32.05;86.40
58955;BME280;45815;52.334;5.024;2023-07-08T10:05:46;101660.56;;;32.18;87.83
58955;BME280;45815;52.334;5.024;2023-07-08T10:08:21;101668.88;;;32.31;87.03
58955;BME280;45815;52.334;5.024;2023-07-08T10:10:53;101672.50;;;32.46;87.04
58955;BME280;45815;52.334;5.024;2023-07-08T10:13:26;101675.69;;;32.38;87.50
58955;BME280;45815;52.334;5.024;2023-07-08T10:16:13;101674.97;;;32.51;87.15
58955;BME280;45815;52.334;5.024;2023-07-08T10:18:43;101670.06;;;32.72;86.05
58955;BME280;45815;52.334;5.024;2023-07-08T10:21:37;101665.44;;;32.88;86.02
58955;BME280;45815;52.334;5.024;2023-07-08T10:26:50;101665.50;;;33.17;84.03
58955;BME280;45815;52.334;5.024;2023-07-08T10:35:16;101663.34;;;33.51;81.08
58955;BME280;45815;52.334;5.024;2023-07-08T10:48:31;101661.34;;;34.09;76.95
58955;BME280;45815;52.334;5.024;2023-07-08T10:53:42;101662.16;;;34.38;74.93
58955;BME280;45815;52.334;5.024;2023-07-08T10:56:16;101658.97;;;34.44;75.88
58955;BME280;45815;52.334;5.024;2023-07-08T10:58:58;101658.94;;;34.58;72.94
58955;BME280;45815;52.334;5.024;2023-07-08T11:02:13;101648.50;;;34.78;74.54
58955;BME280;45815;52.334;5.024;2023-07-08T11:04:57;101656.03;;;34.87;73.62
58955;BME280;45815;52.334;5.024;2023-07-08T11:07:41;101656.34;;;35.08;75.32
58955;BME280;45815;52.334;5.024;2023-07-08T11:12:48;101653.50;;;35.35;74.80
58955;BME280;45815;52.334;5.024;2023-07-08T11:15:21;101638.84;;;35.49;73.11
58955;BME280;45815;52.334;5.024;2023-07-08T11:23:39;101642.94;;;35.80;70.68
58955;BME280;45815;52.334;5.024;2023-07-08T11:28:38;101648.09;;;35.96;69.36
58955;BME280;45815;52.334;5.024;2023-07-08T11:31:04;101631.06;;;35.92;68.80
58955;BME280;45815;52.334;5.024;2023-07-08T11:33:30;101636.78;;;35.89;69.68
58955;BME280;45815;52.334;5.024;2023-07-08T11:35:57;101641.81;;;36.07;70.42
58955;BME280;45815;52.334;5.024;2023-07-08T11:38:25;101634.47;;;36.20;67.89
58955;BME280;45815;52.334;5.024;2023-07-08T11:41:00;101635.47;;;36.30;67.56
58955;BME280;45815;52.334;5.024;2023-07-08T11:43:28;101631.63;;;36.33;67.92
58955;BME280;45815;52.334;5.024;2023-07-08T11:46:03;101638.25;;;36.42;69.25
58955;BME280;45815;52.334;5.024;2023-07-08T11:48:31;101634.53;;;36.43;68.61
58955;BME280;45815;52.334;5.024;2023-07-08T11:51:03;101625.00;;;36.24;66.98
58955;BME280;45815;52.334;5.024;2023-07-08T11:58:29;101627.63;;;36.61;67.17
58955;BME280;45815;52.334;5.024;2023-07-08T12:01:19;101626.31;;;36.67;66.85
58955;BME280;45815;52.334;5.024;2023-07-08T12:03:49;101623.69;;;36.76;67.80
58955;BME280;45815;52.334;5.024;2023-07-08T12:09:37;101619.59;;;36.82;68.74
58955;BME280;45815;52.334;5.024;2023-07-08T12:12:07;101619.22;;;36.98;63.71
58955;BME280;45815;52.334;5.024;2023-07-08T12:14:32;101623.84;;;36.97;63.37
58955;BME280;45815;52.334;5.024;2023-07-08T12:16:58;101615.50;;;36.88;62.36
58955;BME280;45815;52.334;5.024;2023-07-08T12:19:27;101611.88;;;36.87;62.91
58955;BME280;45815;52.334;5.024;2023-07-08T12:21:57;101612.38;;;36.81;65.19
58955;BME280;45815;52.334;5.024;2023-07-08T12:24:23;101614.00;;;36.84;66.02
58955;BME280;45815;52.334;5.024;2023-07-08T12:26:52;101606.03;;;36.92;65.28
58955;BME280;45815;52.334;5.024;2023-07-08T12:29:18;101604.28;;;36.80;65.63
58955;BME280;45815;52.334;5.024;2023-07-08T12:31:53;101600.56;;;36.69;65.62
58955;BME280;45815;52.334;5.024;2023-07-08T12:34:19;101601.19;;;36.84;64.50
58955;BME280;45815;52.334;5.024;2023-07-08T12:36:46;101596.09;;;36.80;66.72
58955;BME280;45815;52.334;5.024;2023-07-08T12:39:15;101595.69;;;36.73;66.76
58955;BME280;45815;52.334;5.024;2023-07-08T12:41:48;101600.06;;;36.87;64.95
58955;BME280;45815;52.334;5.024;2023-07-08T12:44:19;101592.66;;;37.11;67.50
58955;BME280;45815;52.334;5.024;2023-07-08T12:46:47;101593.25;;;37.37;66.78
58955;BME280;45815;52.334;5.024;2023-07-08T12:49:14;101590.59;;;37.58;65.41
58955;BME280;45815;52.334;5.024;2023-07-08T12:51:42;101591.66;;;37.78;63.30
58955;BME280;45815;52.334;5.024;2023-07-08T12:54:10;101599.47;;;37.83;65.30
58955;BME280;45815;52.334;5.024;2023-07-08T12:56:36;101590.13;;;37.86;64.33
58955;BME280;45815;52.334;5.024;2023-07-08T12:59:06;101586.72;;;38.05;63.44
58955;BME280;45815;52.334;5.024;2023-07-08T13:01:33;101590.16;;;38.18;62.43
58955;BME280;45815;52.334;5.024;2023-07-08T13:04:02;101591.56;;;38.33;62.80
58955;BME280;45815;52.334;5.024;2023-07-08T13:06:30;101587.22;;;38.31;63.33
58955;BME280;45815;52.334;5.024;2023-07-08T13:09:00;101583.06;;;38.36;63.27
58955;BME280;45815;52.334;5.024;2023-07-08T13:11:27;101585.78;;;38.48;61.80
58955;BME280;45815;52.334;5.024;2023-07-08T13:13:57;101581.91;;;38.39;60.64
58955;BME280;45815;52.334;5.024;2023-07-08T13:16:31;101579.06;;;38.40;62.10
58955;BME280;45815;52.334;5.024;2023-07-08T13:18:57;101586.25;;;38.41;61.35
58955;BME280;45815;52.334;5.024;2023-07-08T13:21:23;101582.25;;;38.46;63.15
58955;BME280;45815;52.334;5.024;2023-07-08T13:23:50;101583.66;;;38.61;60.53
58955;BME280;45815;52.334;5.024;2023-07-08T13:26:18;101589.44;;;38.58;62.80
58955;BME280;45815;52.334;5.024;2023-07-08T13:28:45;101582.38;;;38.65;59.99
58955;BME280;45815;52.334;5.024;2023-07-08T13:33:51;101585.09;;;38.86;59.85
58955;BME280;45815;52.334;5.024;2023-07-08T13:36:32;101583.94;;;38.89;58.86
58955;BME280;45815;52.334;5.024;2023-07-08T13:39:01;101587.19;;;38.94;60.19
58955;BME280;45815;52.334;5.024;2023-07-08T13:41:30;101593.72;;;39.02;61.91
58955;BME280;45815;52.334;5.024;2023-07-08T13:43:55;101590.59;;;38.86;61.09
58955;BME280;45815;52.334;5.024;2023-07-08T13:46:39;101585.78;;;38.78;56.26
58955;BME280;45815;52.334;5.024;2023-07-08T13:49:27;101586.06;;;38.75;57.09
58955;BME280;45815;52.334;5.024;2023-07-08T13:52:14;101589.81;;;38.74;56.94